createdAt,value
2018-12-02T00:00:39.123Z,93.70
2018-12-02T00:03:10.705Z,93.80
2018-12-02T00:05:46.012Z,93.70
2018-12-02T00:08:24.325Z,93.80
2018-12-02T00:10:55.851Z,93.80
2018-12-02T00:13:26.783Z,93.60
2018-12-02T00:15:58.212Z,93.70
2018-12-02T00:18:29.505Z,93.80
2018-12-02T00:21:00.941Z,93.70
2018-12-02T00:23:32.346Z,93.70
2018-12-02T00:26:05.050Z,93.80
2018-12-02T00:28:37.029Z,93.70
2018-12-02T00:31:08.310Z,93.70
2018-12-02T00:33:41.246Z,93.70
2018-12-02T00:36:12.369Z,93.70
2018-12-02T00:38:43.260Z,93.60
2018-12-02T00:41:14.694Z,93.60
2018-12-02T00:43:46.104Z,93.50
2018-12-02T00:46:17.657Z,93.60
2018-12-02T00:48:48.660Z,93.60
2018-12-02T00:51:20.742Z,95.30
2018-12-02T00:53:52.155Z,96.20
2018-12-02T00:56:22.647Z,96.40
2018-12-02T00:58:53.725Z,96.60
2018-12-02T01:01:24.527Z,96.80
2018-12-02T01:03:55.327Z,97.00
2018-12-02T01:06:26.879Z,97.10
2018-12-02T01:08:57.271Z,97.00
2018-12-02T01:11:28.595Z,96.90
2018-12-02T01:14:00.205Z,96.90
2018-12-02T01:16:31.162Z,96.90
2018-12-02T01:19:06.201Z,96.70
2018-12-02T01:21:37.014Z,96.50
2018-12-02T01:24:08.570Z,96.60
2018-12-02T01:26:39.440Z,96.30
2018-12-02T01:29:11.059Z,96.00
2018-12-02T01:31:46.933Z,96.10
2018-12-02T01:34:18.115Z,95.90
2018-12-02T01:36:49.260Z,95.70
2018-12-02T01:39:20.214Z,95.60
2018-12-02T01:41:51.417Z,95.40
2018-12-02T01:44:22.864Z,95.30
2018-12-02T01:46:54.292Z,95.30
2018-12-02T01:49:26.026Z,94.90
2018-12-02T01:51:57.296Z,95.00
2018-12-02T01:54:28.180Z,94.90
2018-12-02T01:56:59.552Z,94.80
2018-12-02T01:59:32.403Z,95.00
2018-12-02T02:02:04.459Z,95.00
2018-12-02T02:04:35.781Z,95.00
2018-12-02T02:07:06.709Z,95.40
2018-12-02T02:09:37.765Z,95.60
2018-12-02T02:12:08.818Z,95.90
2018-12-02T02:14:40.726Z,96.10
2018-12-02T02:17:11.872Z,96.40
2018-12-02T02:19:42.376Z,97.10
2018-12-02T02:22:13.883Z,97.50
2018-12-02T02:24:46.941Z,98.00
2018-12-02T02:27:18.043Z,98.10
2018-12-02T02:29:50.305Z,98.30
2018-12-02T02:32:21.592Z,98.50
2018-12-02T02:34:52.819Z,98.70
2018-12-02T02:37:24.356Z,98.90
2018-12-02T02:39:55.221Z,99.00
2018-12-02T02:42:26.148Z,99.10
2018-12-02T02:44:57.087Z,99.20
2018-12-02T02:47:28.030Z,99.30
2018-12-02T02:49:59.266Z,99.60
2018-12-02T02:52:30.295Z,99.90
2018-12-02T02:55:01.820Z,99.90
2018-12-02T02:57:33.322Z,99.90
2018-12-02T03:00:07.496Z,99.90
2018-12-02T03:02:38.820Z,99.90
2018-12-02T03:05:11.275Z,99.90
2018-12-02T03:07:42.159Z,99.90
2018-12-02T03:10:17.247Z,99.90
2018-12-02T03:12:53.054Z,99.90
2018-12-02T03:15:24.750Z,99.90
2018-12-02T03:17:55.800Z,99.90
2018-12-02T03:20:31.557Z,99.90
2018-12-02T03:23:02.573Z,99.90
2018-12-02T03:25:33.621Z,99.90
2018-12-02T03:28:04.584Z,99.90
2018-12-02T03:30:35.186Z,99.90
2018-12-02T03:33:05.852Z,99.90
2018-12-02T03:35:40.426Z,99.90
2018-12-02T03:38:11.002Z,99.90
2018-12-02T03:40:42.640Z,99.90
2018-12-02T03:43:12.891Z,99.90
2018-12-02T03:45:43.667Z,99.90
2018-12-02T03:48:14.303Z,99.90
2018-12-02T03:50:44.931Z,99.90
2018-12-02T03:53:15.900Z,99.90
2018-12-02T03:55:46.513Z,99.90
2018-12-02T03:58:17.645Z,99.90
2018-12-02T04:00:48.833Z,99.90
2018-12-02T04:03:19.139Z,99.90
2018-12-02T04:05:50.075Z,99.90
2018-12-02T04:08:20.713Z,99.90
2018-12-02T04:10:51.603Z,99.90
2018-12-02T04:13:22.105Z,99.90
2018-12-02T04:15:53.647Z,99.90
2018-12-02T04:18:24.082Z,99.90
2018-12-02T04:20:54.800Z,99.90
2018-12-02T04:23:25.370Z,99.90
2018-12-02T04:25:56.396Z,99.90
2018-12-02T04:28:27.620Z,99.90
2018-12-02T04:30:58.689Z,99.90
2018-12-02T04:33:29.563Z,99.90
2018-12-02T04:36:00.594Z,99.90
2018-12-02T04:38:31.417Z,99.90
2018-12-02T04:41:02.222Z,99.90
2018-12-02T04:43:32.886Z,99.90
2018-12-02T04:46:03.646Z,99.90
2018-12-02T04:48:34.079Z,99.90
2018-12-02T04:51:05.076Z,99.90
2018-12-02T04:53:35.905Z,99.90
2018-12-02T04:56:06.717Z,99.90
2018-12-02T04:58:37.180Z,99.90
2018-12-02T05:01:08.058Z,99.90
2018-12-02T05:03:38.855Z,99.90
2018-12-02T05:06:08.886Z,99.90
2018-12-02T05:08:39.273Z,99.90
2018-12-02T05:11:09.923Z,99.90
2018-12-02T05:13:41.077Z,99.90
2018-12-02T05:16:12.213Z,99.90
2018-12-02T05:18:42.543Z,99.90
2018-12-02T05:21:14.384Z,99.90
2018-12-02T05:23:44.565Z,99.90
2018-12-02T05:26:15.029Z,99.90
2018-12-02T05:28:46.370Z,99.90
2018-12-02T05:31:17.012Z,99.90
2018-12-02T05:33:47.896Z,99.90
2018-12-02T05:36:18.878Z,99.90
2018-12-02T05:38:49.747Z,99.90
2018-12-02T05:41:20.281Z,99.90
2018-12-02T05:43:51.350Z,99.90
2018-12-02T05:46:22.315Z,99.90
2018-12-02T05:48:53.417Z,99.90
2018-12-02T05:51:24.967Z,99.90
2018-12-02T05:53:55.858Z,99.90
2018-12-02T05:56:26.430Z,99.90
2018-12-02T05:58:57.673Z,99.90
2018-12-02T06:01:28.544Z,99.90
2018-12-02T06:03:59.129Z,99.90
2018-12-02T06:06:29.708Z,99.90
2018-12-02T06:09:00.418Z,99.90
2018-12-02T06:11:31.558Z,99.90
2018-12-02T06:14:02.290Z,99.90
2018-12-02T06:16:33.106Z,99.90
2018-12-02T06:19:03.677Z,99.90
2018-12-02T06:21:35.043Z,99.90
2018-12-02T06:24:06.447Z,99.90
2018-12-02T06:26:37.793Z,99.90
2018-12-02T06:29:08.929Z,99.90
2018-12-02T06:31:39.320Z,99.90
2018-12-02T06:34:14.316Z,99.90
2018-12-02T06:36:45.294Z,99.90
2018-12-02T06:39:16.248Z,99.90
2018-12-02T06:41:46.216Z,99.90
2018-12-02T06:44:17.605Z,99.90
2018-12-02T06:46:48.452Z,99.90
2018-12-02T06:49:19.689Z,99.90
2018-12-02T06:51:51.216Z,99.90
2018-12-02T06:54:23.600Z,99.90
2018-12-02T06:57:00.782Z,99.90
2018-12-02T06:59:42.249Z,99.90
2018-12-02T07:02:46.085Z,99.90
2018-12-02T07:05:21.585Z,99.90
2018-12-02T07:07:52.113Z,99.90
2018-12-02T07:10:22.239Z,99.90
2018-12-02T07:12:52.570Z,99.90
2018-12-02T07:15:22.743Z,99.90
2018-12-02T07:17:58.072Z,99.90
2018-12-02T07:20:29.532Z,99.90
2018-12-02T07:23:00.749Z,99.90
2018-12-02T07:25:32.468Z,99.90
2018-12-02T07:28:02.634Z,99.90
2018-12-02T07:30:33.303Z,99.90
2018-12-02T07:33:11.494Z,99.90
2018-12-02T07:36:01.006Z,99.90
2018-12-02T07:41:07.712Z,99.90
2018-12-02T07:43:46.913Z,99.90
2018-12-02T07:46:17.429Z,99.90
2018-12-02T07:48:52.440Z,99.90
2018-12-02T07:51:23.722Z,99.90
2018-12-02T07:53:56.887Z,99.90
2018-12-02T07:56:28.410Z,99.90
2018-12-02T07:59:00.791Z,99.90
2018-12-02T08:01:32.873Z,99.90
2018-12-02T08:04:04.778Z,99.90
2018-12-02T08:06:36.928Z,99.90
2018-12-02T08:09:09.730Z,99.90
2018-12-02T08:11:41.450Z,99.90
2018-12-02T08:14:19.799Z,99.90
2018-12-02T08:16:52.392Z,99.90
2018-12-02T08:19:24.474Z,99.90
2018-12-02T08:21:56.510Z,99.90
2018-12-02T08:24:28.876Z,99.90
2018-12-02T08:27:00.332Z,99.90
2018-12-02T08:29:31.422Z,99.90
2018-12-02T08:32:01.959Z,99.90
2018-12-02T08:34:32.417Z,99.90
2018-12-02T08:37:02.551Z,99.90
2018-12-02T08:39:37.079Z,99.90
2018-12-02T08:42:07.193Z,99.90
2018-12-02T08:44:37.755Z,99.90
2018-12-02T08:47:08.029Z,99.90
2018-12-02T08:49:38.438Z,99.90
2018-12-02T08:52:16.753Z,99.90
2018-12-02T08:54:47.410Z,99.90
2018-12-02T08:57:22.787Z,99.90
2018-12-02T08:59:53.281Z,99.90
2018-12-02T09:02:23.945Z,99.90
2018-12-02T09:04:54.358Z,99.90
2018-12-02T09:07:27.028Z,99.90
2018-12-02T09:09:59.640Z,99.90
2018-12-02T09:12:28.740Z,99.90
2018-12-02T09:15:00.124Z,99.90
2018-12-02T09:17:31.067Z,99.90
2018-12-02T09:20:01.326Z,99.90
2018-12-02T09:22:31.938Z,99.90
2018-12-02T09:25:02.472Z,99.90
2018-12-02T09:27:32.998Z,99.90
2018-12-02T09:30:03.457Z,99.90
2018-12-02T09:32:33.769Z,99.90
2018-12-02T09:35:04.649Z,99.90
2018-12-02T09:37:35.206Z,99.90
2018-12-02T09:40:09.191Z,99.90
2018-12-02T09:42:39.799Z,99.90
2018-12-02T09:45:14.058Z,99.90
2018-12-02T09:47:44.334Z,99.90
2018-12-02T09:50:15.582Z,99.90
2018-12-02T09:52:45.830Z,99.90
2018-12-02T09:55:37.045Z,99.90
2018-12-02T09:58:09.590Z,99.90
2018-12-02T10:00:40.979Z,99.90
2018-12-02T10:03:11.024Z,99.90
2018-12-02T10:05:43.169Z,99.90
2018-12-02T10:08:13.601Z,99.90
2018-12-02T10:10:44.344Z,99.90
2018-12-02T10:13:17.031Z,99.90
2018-12-02T10:15:47.635Z,99.90
2018-12-02T10:18:22.710Z,99.90
2018-12-02T10:20:53.455Z,99.90
2018-12-02T10:23:23.982Z,99.90
2018-12-02T10:25:54.460Z,99.90
2018-12-02T10:28:25.924Z,99.90
2018-12-02T10:30:57.342Z,99.90
2018-12-02T10:33:28.474Z,99.90
2018-12-02T10:35:59.580Z,99.90
2018-12-02T10:38:30.412Z,99.90
2018-12-02T10:41:01.489Z,99.90
2018-12-02T10:43:32.810Z,99.90
2018-12-02T10:46:03.589Z,99.90
2018-12-02T10:48:34.320Z,99.90
2018-12-02T10:51:05.103Z,99.90
2018-12-02T10:53:36.089Z,99.90
2018-12-02T10:56:06.922Z,99.90
2018-12-02T10:58:37.411Z,99.90
2018-12-02T11:01:18.212Z,99.90
2018-12-02T11:03:50.141Z,99.90
2018-12-02T11:06:20.530Z,99.90
2018-12-02T11:08:50.839Z,99.90
2018-12-02T11:11:21.495Z,99.90
2018-12-02T11:13:51.367Z,99.90
2018-12-02T11:16:21.741Z,99.90
2018-12-02T11:18:52.722Z,99.90
2018-12-02T11:21:22.680Z,99.90
2018-12-02T11:23:53.993Z,99.90
2018-12-02T11:26:33.348Z,99.90
2018-12-02T11:29:07.361Z,99.90
2018-12-02T11:31:37.653Z,99.90
2018-12-02T11:34:07.906Z,99.90
2018-12-02T11:36:39.449Z,99.90
2018-12-02T11:39:10.234Z,99.90
2018-12-02T11:41:47.331Z,99.90
2018-12-02T11:44:18.129Z,99.90
2018-12-02T11:46:49.375Z,99.90
2018-12-02T11:49:19.866Z,99.90
2018-12-02T11:51:50.558Z,99.90
2018-12-02T11:54:21.272Z,99.90
2018-12-02T11:56:52.257Z,99.90
2018-12-02T11:59:23.084Z,99.90
2018-12-02T12:02:57.893Z,99.90
2018-12-02T12:05:30.437Z,99.90
2018-12-02T12:08:01.933Z,99.90
2018-12-02T12:10:33.793Z,99.90
2018-12-02T12:13:06.081Z,99.90
2018-12-02T12:15:38.750Z,99.90
2018-12-02T12:18:10.125Z,99.90
2018-12-02T12:20:45.911Z,99.90
2018-12-02T12:23:22.653Z,99.90
2018-12-02T12:25:53.354Z,99.90
2018-12-02T12:28:23.480Z,99.90
2018-12-02T12:30:54.342Z,99.90
2018-12-02T12:33:24.692Z,99.90
2018-12-02T12:35:55.176Z,99.90
2018-12-02T12:38:25.558Z,99.90
2018-12-02T12:40:56.198Z,99.90
2018-12-02T12:43:29.837Z,99.90
2018-12-02T12:46:01.671Z,99.90
2018-12-02T12:48:32.105Z,99.90
2018-12-02T12:51:02.552Z,99.90
2018-12-02T12:53:32.855Z,99.90
2018-12-02T12:56:03.992Z,99.90
2018-12-02T12:58:35.466Z,99.90
2018-12-02T13:01:06.369Z,99.90
2018-12-02T13:03:37.812Z,99.90
2018-12-02T13:06:08.708Z,99.90
2018-12-02T13:08:39.868Z,99.90
2018-12-02T13:11:10.841Z,99.90
2018-12-02T13:13:41.148Z,99.90
2018-12-02T13:16:11.922Z,99.90
2018-12-02T13:18:42.288Z,99.90
2018-12-02T13:21:13.254Z,99.90
2018-12-02T13:23:44.237Z,99.90
2018-12-02T13:26:14.843Z,99.90
2018-12-02T13:28:46.132Z,99.90
2018-12-02T13:31:17.695Z,99.90
2018-12-02T13:33:49.242Z,99.90
2018-12-02T13:36:20.777Z,99.90
2018-12-02T13:38:52.439Z,99.90
2018-12-02T13:41:25.164Z,99.90
2018-12-02T13:43:56.194Z,99.90
2018-12-02T13:46:27.671Z,99.90
2018-12-02T13:48:59.978Z,99.90
2018-12-02T13:51:31.138Z,99.90
2018-12-02T13:54:08.522Z,99.90
2018-12-02T13:56:41.304Z,99.90
2018-12-02T13:59:15.306Z,99.90
2018-12-02T14:01:46.786Z,99.90
2018-12-02T14:04:20.191Z,99.90
2018-12-02T14:06:51.861Z,99.90
2018-12-02T14:09:24.580Z,99.90
2018-12-02T14:11:57.473Z,99.90
2018-12-02T14:14:28.785Z,99.90
2018-12-02T14:17:07.458Z,99.90
2018-12-02T14:19:43.966Z,99.90
2018-12-02T14:22:17.457Z,99.90
2018-12-02T14:24:50.704Z,99.90
2018-12-02T14:27:22.481Z,99.90
2018-12-02T14:29:55.992Z,99.90
2018-12-02T14:32:35.124Z,99.90
2018-12-02T14:35:08.105Z,99.90
2018-12-02T14:37:41.464Z,99.90
2018-12-02T14:40:15.066Z,99.90
2018-12-02T14:42:50.349Z,99.90
2018-12-02T14:45:21.962Z,99.90
2018-12-02T14:47:53.409Z,99.90
2018-12-02T14:50:24.735Z,99.90
2018-12-02T14:52:56.946Z,99.90
2018-12-02T14:55:28.594Z,99.90
2018-12-02T14:58:00.492Z,99.90
2018-12-02T15:00:32.558Z,99.90
2018-12-02T15:03:10.227Z,99.90
2018-12-02T15:05:42.113Z,99.90
2018-12-02T15:08:13.739Z,99.90
2018-12-02T15:10:46.022Z,99.90
2018-12-02T15:13:17.658Z,99.90
2018-12-02T15:15:51.178Z,99.90
2018-12-02T15:18:28.559Z,99.90
2018-12-02T15:21:00.104Z,99.90
2018-12-02T15:23:30.853Z,99.90
2018-12-02T15:26:04.138Z,99.90
2018-12-02T15:28:36.252Z,99.90
2018-12-02T15:31:08.140Z,99.90
2018-12-02T15:33:39.316Z,99.90
2018-12-02T15:36:11.820Z,99.90
2018-12-02T15:38:45.392Z,99.90
2018-12-02T15:41:18.587Z,99.90
2018-12-02T15:43:51.484Z,99.90
2018-12-02T15:46:24.070Z,99.90
2018-12-02T15:48:56.014Z,99.90
2018-12-02T15:51:28.721Z,99.90
2018-12-02T15:54:00.193Z,99.90
2018-12-02T15:56:31.348Z,99.90
2018-12-02T15:59:06.297Z,99.90
2018-12-02T16:01:38.205Z,99.90
2018-12-02T16:04:10.484Z,99.90
2018-12-02T16:06:40.412Z,99.90
2018-12-02T16:09:11.907Z,99.90
2018-12-02T16:11:43.038Z,99.90
2018-12-02T16:14:13.275Z,99.90
2018-12-02T16:16:44.732Z,99.90
2018-12-02T16:19:15.200Z,99.90
2018-12-02T16:21:46.180Z,99.90
2018-12-02T16:24:17.149Z,99.90
2018-12-02T16:26:48.327Z,99.90
2018-12-02T16:29:19.308Z,99.90
2018-12-02T16:31:49.845Z,99.90
2018-12-02T16:34:21.615Z,99.90
2018-12-02T16:36:52.474Z,99.90
2018-12-02T16:39:23.067Z,99.90
2018-12-02T16:41:53.783Z,99.90
2018-12-02T16:44:25.815Z,99.90
2018-12-02T16:46:56.573Z,99.90
2018-12-02T16:49:28.123Z,99.90
2018-12-02T16:51:59.768Z,99.90
2018-12-02T16:54:32.574Z,99.90
2018-12-02T16:57:05.088Z,99.90
2018-12-02T16:59:43.053Z,99.90
2018-12-02T17:02:14.062Z,99.90
2018-12-02T17:04:49.762Z,99.90
2018-12-02T17:07:21.391Z,99.90
2018-12-02T17:09:52.279Z,99.90
2018-12-02T17:12:23.986Z,99.90
2018-12-02T17:14:56.413Z,99.90
2018-12-02T17:17:28.743Z,99.90
2018-12-02T17:20:15.325Z,99.90
2018-12-02T17:22:47.865Z,99.90
2018-12-02T17:25:19.397Z,99.90
2018-12-02T17:27:50.343Z,99.90
2018-12-02T17:30:24.426Z,99.90
2018-12-02T17:32:56.534Z,99.90
2018-12-02T17:35:27.756Z,99.90
2018-12-02T17:37:58.892Z,99.90
2018-12-02T17:40:34.300Z,99.90
2018-12-02T17:43:11.060Z,99.90
2018-12-02T17:45:44.206Z,99.90
2018-12-02T17:48:18.745Z,99.90
2018-12-02T17:50:57.248Z,99.90
2018-12-02T17:53:36.520Z,99.90
2018-12-02T17:56:10.690Z,99.90
2018-12-02T17:58:43.686Z,99.90
2018-12-02T18:01:15.368Z,99.90
2018-12-02T18:03:47.268Z,99.90
2018-12-02T18:06:19.209Z,99.90
2018-12-02T18:08:59.083Z,99.90
2018-12-02T18:11:29.888Z,99.90
2018-12-02T18:14:03.264Z,99.90
2018-12-02T18:16:36.335Z,99.90
2018-12-02T18:19:10.281Z,99.90
2018-12-02T18:21:42.971Z,99.90
2018-12-02T18:24:15.319Z,99.90
2018-12-02T18:26:47.288Z,99.90
2018-12-02T18:29:18.718Z,99.90
2018-12-02T18:31:51.242Z,99.90
2018-12-02T18:34:22.700Z,99.90
2018-12-02T18:36:57.342Z,99.90
2018-12-02T18:39:29.340Z,99.90
2018-12-02T18:42:01.881Z,99.90
2018-12-02T18:44:33.005Z,99.90
2018-12-02T18:47:05.361Z,99.90
2018-12-02T18:49:37.482Z,99.90
2018-12-02T18:52:09.363Z,99.90
2018-12-02T18:54:41.204Z,99.90
2018-12-02T18:57:12.650Z,99.90
2018-12-02T18:59:45.984Z,99.90
2018-12-02T19:02:18.404Z,99.90
2018-12-02T19:04:50.214Z,99.90
2018-12-02T19:07:20.985Z,99.90
2018-12-02T19:09:58.234Z,99.90
2018-12-02T19:12:30.358Z,99.90
2018-12-02T19:15:03.407Z,99.90
2018-12-02T19:17:35.243Z,99.90
2018-12-02T19:20:14.423Z,99.90
2018-12-02T19:22:47.454Z,99.90
2018-12-02T19:25:21.313Z,99.90
2018-12-02T19:27:55.433Z,99.90
2018-12-02T19:30:34.155Z,99.90
2018-12-02T19:33:09.217Z,99.90
2018-12-02T19:35:41.672Z,99.90
2018-12-02T19:38:25.048Z,99.90
2018-12-02T19:40:59.194Z,99.90
2018-12-02T19:43:35.554Z,99.90
2018-12-02T19:46:12.446Z,99.90
2018-12-02T19:48:47.683Z,99.90
2018-12-02T19:51:22.533Z,99.90
2018-12-02T19:53:56.949Z,99.90
2018-12-02T19:56:38.027Z,99.90
2018-12-02T19:59:16.793Z,99.90
2018-12-02T20:01:52.539Z,99.90
2018-12-02T20:04:27.250Z,99.90
2018-12-02T20:07:11.101Z,99.90
2018-12-02T20:09:45.640Z,99.90
2018-12-02T20:12:20.263Z,99.90
2018-12-02T20:14:54.237Z,99.90
2018-12-02T20:17:29.084Z,99.90
2018-12-02T20:20:08.534Z,99.90
2018-12-02T20:22:45.575Z,99.90
2018-12-02T20:25:20.390Z,99.90
2018-12-02T20:27:59.185Z,99.90
2018-12-02T20:30:34.565Z,99.90
2018-12-02T20:33:07.966Z,99.90
2018-12-02T20:35:47.763Z,99.90
2018-12-02T20:38:21.649Z,99.90
2018-12-02T20:40:54.914Z,99.90
2018-12-02T20:43:30.405Z,99.90
2018-12-02T20:46:02.440Z,99.90
2018-12-02T20:48:34.856Z,99.90
2018-12-02T20:51:10.742Z,99.90
2018-12-02T20:53:47.465Z,99.90
2018-12-02T20:56:23.246Z,99.90
2018-12-02T20:58:56.874Z,99.90
2018-12-02T21:01:30.192Z,99.90
2018-12-02T21:04:14.444Z,99.90
2018-12-02T21:06:47.735Z,99.90
2018-12-02T21:09:20.016Z,99.90
2018-12-02T21:11:53.894Z,99.90
2018-12-02T21:14:25.964Z,99.90
2018-12-02T21:17:00.382Z,99.90
2018-12-02T21:23:12.649Z,99.90
2018-12-02T21:25:45.396Z,99.90
2018-12-02T21:28:17.234Z,99.90
2018-12-02T21:30:51.409Z,99.90
2018-12-02T21:33:24.565Z,99.90
2018-12-02T21:35:56.447Z,99.90
2018-12-02T21:38:37.810Z,99.90
2018-12-02T21:41:11.237Z,99.90
2018-12-02T21:43:43.360Z,99.90
2018-12-02T21:46:16.957Z,99.90
2018-12-02T21:48:51.467Z,99.90
2018-12-02T21:51:25.367Z,99.90
2018-12-02T21:53:58.685Z,99.90
2018-12-02T21:56:32.154Z,99.90
2018-12-02T21:59:04.162Z,99.90
2018-12-02T22:01:35.938Z,99.90
2018-12-02T22:04:08.251Z,99.90
2018-12-02T22:09:41.215Z,99.90
2018-12-02T22:12:13.486Z,99.90
2018-12-02T22:14:45.580Z,99.90
2018-12-02T22:17:19.297Z,99.90
2018-12-02T22:19:51.875Z,99.90
2018-12-02T22:22:24.188Z,99.90
2018-12-02T22:24:57.070Z,99.90
2018-12-02T22:27:29.235Z,99.90
2018-12-02T22:30:01.669Z,99.90
2018-12-02T22:32:34.637Z,99.90
2018-12-02T22:35:09.747Z,99.90
2018-12-02T22:37:41.820Z,99.90
2018-12-02T22:40:21.053Z,99.90
2018-12-02T22:42:55.321Z,99.90
2018-12-02T22:45:30.498Z,99.90
2018-12-02T22:48:02.972Z,99.90
2018-12-02T22:54:12.659Z,99.90
2018-12-02T22:56:45.277Z,99.90
2018-12-02T22:59:21.412Z,99.90
2018-12-02T23:01:57.927Z,99.90
2018-12-02T23:04:29.605Z,99.90
2018-12-02T23:07:01.172Z,99.90
2018-12-02T23:09:32.553Z,99.90
2018-12-02T23:12:04.363Z,99.90
2018-12-02T23:14:36.888Z,99.90
2018-12-02T23:17:22.152Z,99.90
2018-12-02T23:19:53.560Z,99.90
2018-12-02T23:22:30.712Z,99.90
2018-12-02T23:25:02.553Z,99.90
2018-12-02T23:27:36.473Z,99.90
2018-12-02T23:30:16.654Z,99.90
2018-12-02T23:32:48.287Z,99.90
2018-12-02T23:35:19.529Z,99.90
2018-12-02T23:37:50.810Z,99.90
2018-12-02T23:40:25.491Z,99.90
2018-12-02T23:42:56.820Z,99.90
2018-12-02T23:45:30.672Z,99.90
2018-12-02T23:48:02.851Z,99.90
2018-12-02T23:50:34.248Z,99.90
2018-12-02T23:53:06.726Z,99.90
2018-12-02T23:55:38.237Z,99.90
2018-12-02T23:58:09.412Z,99.90
